Time;durP1;ratioP1;P1;durP2;ratioP2;P2;SDS_P1;SDS_P2;PMS_P1;PMS_P2;Temp;Humidity;BMP_temperature;BMP_pressure;BME280_temperature;BME280_humidity;BME280_pressure;Samples;Min_cycle;Max_cycle;Signal;HPM_P1;HPM_P2
2022/06/08 00:03:35;;;;;;;3.37;2.10;;;;;;;23.14;63.21;99790.41;18242506;32;20085;-67
2022/06/08 00:13:40;;;;;;;4.00;2.00;;;;;;;23.26;62.56;99778.09;18242387;32;20185;-67
2022/06/08 00:23:46;;;;;;;4.82;2.47;;;;;;;23.45;61.10;99765.41;18241567;32;20153;-67
2022/06/08 00:33:50;;;;;;;4.72;1.98;;;;;;;23.20;61.73;99767.00;18241790;32;20098;-67
2022/06/08 00:43:55;;;;;;;4.87;2.30;;;;;;;22.97;62.27;99758.72;18241268;32;20108;-67
2022/06/08 00:54:00;;;;;;;3.60;1.73;;;;;;;22.98;60.89;99749.78;18241125;32;20359;-67
2022/06/08 01:04:10;;;;;;;5.05;2.08;;;;;;;22.95;60.86;99733.97;18240464;32;20457;-67
2022/06/08 01:14:17;;;;;;;4.50;2.40;;;;;;;22.66;62.91;99765.97;18240275;32;20136;-67
2022/06/08 01:24:21;;;;;;;4.40;2.25;;;;;;;22.49;63.37;99785.63;18239774;32;20124;-67
2022/06/08 01:34:34;;;;;;;3.33;1.95;;;;;;;22.38;64.47;99786.28;18243273;32;20146;-67
2022/06/08 01:55:26;;;;;;;5.22;2.30;;;;;;;21.74;67.97;99806.00;18246097;32;20104;-68
2022/06/08 02:05:36;;;;;;;6.75;2.53;;;;;;;20.73;72.46;99793.00;18246733;32;20098;-67
2022/06/08 02:15:43;;;;;;;5.82;2.67;;;;;;;20.35;74.16;99813.53;18245432;32;20112;-68
2022/06/08 02:25:50;;;;;;;4.47;2.25;;;;;;;21.35;69.33;99789.63;18245265;32;20114;-68
2022/06/08 02:36:03;;;;;;;4.97;2.22;;;;;;;20.75;71.13;99791.97;18245120;32;20469;-68
2022/06/08 02:46:14;;;;;;;6.37;2.62;;;;;;;20.26;75.51;99819.31;18244306;32;20093;-68
2022/06/08 02:56:26;;;;;;;5.60;2.72;;;;;;;20.16;75.71;99832.19;18244236;32;20125;-68
2022/06/08 03:06:35;;;;;;;5.37;2.58;;;;;;;20.23;76.00;99827.44;18244310;32;20134;-67
2022/06/08 03:16:40;;;;;;;5.87;2.62;;;;;;;19.85;78.81;99854.03;18243699;32;20086;-67
2022/06/08 03:26:46;;;;;;;7.57;3.22;;;;;;;19.98;78.75;99860.47;18243600;32;20094;-68
2022/06/08 03:36:50;;;;;;;6.20;2.87;;;;;;;20.23;78.07;99865.38;18244604;32;20093;-67
2022/06/08 03:46:56;;;;;;;5.93;2.80;;;;;;;21.21;73.56;99857.59;18242947;32;20166;-67
2022/06/08 03:57:03;;;;;;;5.62;2.67;;;;;;;20.96;71.52;99847.47;18242090;32;20117;-67
2022/06/08 04:07:08;;;;;;;7.00;2.70;;;;;;;21.26;70.73;99883.88;18242880;32;20105;-67
2022/06/08 04:17:11;;;;;;;5.43;2.78;;;;;;;20.38;74.98;99861.06;18243464;32;20094;-67
2022/06/08 04:27:16;;;;;;;8.00;2.87;;;;;;;20.65;73.13;99852.59;18242188;32;20187;-67
2022/06/08 04:37:20;;;;;;;5.75;2.87;;;;;;;19.75;78.09;99848.34;18235781;32;189510;-67
2022/06/08 04:47:24;;;;;;;7.53;3.15;;;;;;;19.88;78.08;99860.03;18240446;32;20106;-67
2022/06/08 04:57:30;;;;;;;7.05;3.12;;;;;;;19.87;79.35;99849.53;18239924;32;20082;-67
2022/06/08 05:07:35;;;;;;;6.65;3.03;;;;;;;20.47;77.23;99857.09;18237565;32;20114;-67
2022/06/08 05:17:38;;;;;;;6.70;3.20;;;;;;;21.45;72.15;99854.53;18240582;32;20090;-68
2022/06/08 05:27:43;;;;;;;5.30;2.62;;;;;;;21.79;69.87;99859.72;18239554;32;20079;-68
2022/06/08 05:37:46;;;;;;;6.45;2.70;;;;;;;22.03;68.73;99870.72;18238894;32;20102;-67
2022/06/08 05:47:50;;;;;;;5.07;2.62;;;;;;;21.50;74.06;99875.50;18237923;32;20192;-67
2022/06/08 05:57:54;;;;;;;7.87;2.80;;;;;;;22.12;72.89;99877.28;18237456;32;20106;-67
2022/06/08 06:07:59;;;;;;;6.62;3.03;;;;;;;21.74;75.74;99873.28;18235843;32;20094;-67
2022/06/08 06:18:02;;;;;;;4.32;2.03;;;;;;;22.03;73.16;99869.84;18236791;32;20116;-68
2022/06/08 06:28:07;;;;;;;5.47;2.70;;;;;;;22.65;70.03;99875.97;18244965;32;20129;-68
2022/06/08 06:38:11;;;;;;;6.70;2.20;;;;;;;23.09;65.78;99896.31;18270908;32;20109;-68
2022/06/08 06:48:16;;;;;;;8.98;7.87;;;;;;;23.41;66.37;99885.44;18242681;32;20173;-68
2022/06/08 06:58:19;;;;;;;4.12;2.05;;;;;;;23.12;68.65;99885.47;18249920;32;20133;-69
2022/06/08 07:08:24;;;;;;;4.20;1.98;;;;;;;23.86;64.00;99868.38;18200744;32;20124;-67
2022/06/08 07:18:27;;;;;;;4.03;2.10;;;;;;;24.69;57.59;99855.69;18299653;32;20084;-71
2022/06/08 07:28:32;;;;;;;21.85;5.82;;;;;;;25.70;58.32;99855.66;18304332;32;20490;-68
2022/06/08 07:38:35;;;;;;;10.70;3.60;;;;;;;25.43;57.92;99843.38;18309864;32;20539;-68
2022/06/08 07:59:00;;;;;;;6.32;2.58;;;;;;;23.86;61.82;99852.38;18366998;32;20117;-68
2022/06/08 08:09:05;;;;;;;5.25;2.42;;;;;;;23.93;62.73;99844.81;18349756;32;20117;-67
2022/06/08 08:19:09;;;;;;;3.55;1.87;;;;;;;24.59;60.28;99834.13;18287672;32;20092;-69
2022/06/08 08:29:14;;;;;;;4.90;2.35;;;;;;;25.19;58.84;99828.16;18304223;32;20447;-68
2022/06/08 08:39:18;;;;;;;4.80;2.58;;;;;;;24.93;62.08;99820.22;18303311;32;20082;-68
2022/06/08 08:49:26;;;;;;;6.55;2.80;;;;;;;24.84;60.26;99816.41;18304023;32;20112;-68
2022/06/08 08:59:31;;;;;;;7.22;3.08;;;;;;;25.91;57.96;99821.13;18290103;32;20674;-68
2022/06/08 09:09:36;;;;;;;6.40;3.08;;;;;;;25.78;61.46;99826.53;18320687;32;20085;-68
2022/06/08 09:19:42;;;;;;;7.25;3.30;;;;;;;25.68;59.00;99821.06;18365284;32;20346;-68
2022/06/08 09:29:54;;;;;;;11.52;4.40;;;;;;;26.27;59.36;99799.69;18363750;32;20089;-67
2022/06/08 09:39:59;;;;;;;11.20;4.30;;;;;;;25.71;61.33;99799.44;18361217;32;20147;-68
2022/06/08 10:00:40;;;;;;;6.82;3.37;;;;;;;25.97;60.32;99793.91;18370879;32;20647;-68
2022/06/08 10:10:52;;;;;;;8.10;3.50;;;;;;;26.26;59.62;99779.28;18341337;32;20108;-67
2022/06/08 10:21:03;;;;;;;16.12;5.20;;;;;;;26.20;59.92;99759.22;18304773;32;20098;-68
2022/06/08 10:31:14;;;;;;;6.57;3.33;;;;;;;26.21;58.72;99744.84;18307362;32;20647;-68
2022/06/08 10:52:17;;;;;;;6.95;3.55;;;;;;;26.92;57.20;99724.16;18306570;32;20109;-68
2022/06/08 11:02:27;;;;;;;6.00;2.83;;;;;;;26.93;56.90;99697.22;18303969;32;20112;-68
2022/06/08 11:12:39;;;;;;;3.43;1.70;;;;;;;28.72;45.82;99681.19;18304673;32;20426;-68
2022/06/08 11:22:43;;;;;;;5.62;2.20;;;;;;;28.73;37.92;99672.13;18291486;32;20102;-67
2022/06/08 11:33:16;;;;;;;3.80;2.17;;;;;;;28.83;39.03;99656.91;18304594;32;20108;-69
2022/06/08 11:43:36;;;;;;;3.53;1.90;;;;;;;29.50;40.61;99653.50;18330086;32;20108;-70
2022/06/08 11:53:42;;;;;;;;;;;;;;;30.83;35.30;99639.03;18369068;32;20106;-68
2022/06/08 12:03:47;;;;;;;3.00;1.85;;;;;;;31.10;33.20;99629.16;18366840;32;19977;-68
2022/06/08 12:13:56;;;;;;;2.72;1.67;;;;;;;32.28;34.01;99621.59;18363858;32;20102;-68
2022/06/08 12:24:06;;;;;;;3.45;1.80;;;;;;;31.75;30.60;99616.28;18349305;32;20097;-68
2022/06/08 12:34:27;;;;;;;3.35;2.05;;;;;;;30.30;32.59;99598.41;18353149;32;20434;-67
2022/06/08 12:44:34;;;;;;;3.90;2.15;;;;;;;29.76;37.37;99583.78;18352705;32;20101;-68
2022/06/08 12:54:39;;;;;;;6.37;2.55;;;;;;;31.25;32.28;99564.78;18367198;32;20104;-68
2022/06/08 13:04:43;;;;;;;3.58;2.20;;;;;;;30.63;34.32;99563.72;18366093;32;20162;-68
2022/06/08 13:14:48;;;;;;;4.80;2.17;;;;;;;30.62;34.30;99553.97;18366541;32;20164;-67
2022/06/08 13:24:52;;;;;;;6.82;2.80;;;;;;;28.00;40.76;99587.34;18365207;32;20159;-67
2022/06/08 13:34:57;;;;;;;6.47;3.00;;;;;;;24.90;57.27;99598.91;18365005;32;20112;-67
2022/06/08 13:45:00;;;;;;;8.80;3.42;;;;;;;24.12;63.51;99577.88;18308485;32;20360;-67
2022/06/08 13:55:13;;;;;;;9.57;4.43;;;;;;;22.64;72.31;99610.94;18298314;32;20090;-66
2022/06/08 14:05:20;;;;;;;9.52;5.00;;;;;;;22.12;72.60;99622.16;18301208;32;20090;-66
2022/06/08 14:15:25;;;;;;;12.52;5.85;;;;;;;21.37;76.32;99689.50;18299416;32;20090;-66
2022/06/08 14:25:29;;;;;;;11.02;5.12;;;;;;;20.85;79.87;99659.72;18326210;32;20163;-66
2022/06/08 14:35:39;;;;;;;6.87;3.00;;;;;;;19.68;80.53;99728.63;18361452;32;20123;-68
2022/06/08 15:37:41;;;;;;;9.77;4.43;;;;;;;19.87;82.58;99672.94;18735469;31;161100;-65
2022/06/08 16:16:36;;;;;;;9.37;4.33;;;;;;;22.44;71.48;99683.06;18738211;31;74743;-66
2022/06/08 16:26:40;;;;;;;11.45;5.87;;;;;;;22.44;71.48;99683.06;18742571;31;20128;-66
2022/06/08 16:36:45;;;;;;;15.23;5.20;;;;;;;20.93;80.08;99672.56;18680873;31;20087;-66
2022/06/08 16:46:48;;;;;;;10.90;5.00;;;;;;;20.57;83.26;99666.56;18674000;31;20166;-65
2022/06/08 17:07:15;;;;;;;12.70;6.18;;;;;;;22.23;72.56;99610.84;18661817;31;20098;-65
2022/06/08 17:17:22;;;;;;;11.07;5.90;;;;;;;20.89;81.74;99621.50;18356403;32;20073;-66
2022/06/08 17:27:25;;;;;;;10.60;5.12;;;;;;;21.48;79.20;99623.34;18357403;32;20101;-66
2022/06/08 17:37:30;;;;;;;9.55;4.82;;;;;;;21.65;78.14;99632.09;18358950;32;20107;-65
2022/06/08 17:47:35;;;;;;;11.73;4.95;;;;;;;21.69;77.31;99623.00;18359473;32;20116;-65
2022/06/08 17:57:40;;;;;;;10.27;5.00;;;;;;;22.11;74.81;99601.84;18360365;32;20170;-65
2022/06/08 18:07:44;;;;;;;9.68;5.15;;;;;;;21.57;77.07;99607.81;18408828;32;20103;-66
2022/06/08 18:17:48;;;;;;;8.23;4.37;;;;;;;21.41;77.41;99603.41;18422044;32;20169;-66
2022/06/08 18:27:54;;;;;;;11.38;4.90;;;;;;;21.55;74.98;99607.88;18420975;32;20427;-65
2022/06/08 18:37:59;;;;;;;11.02;5.05;;;;;;;21.88;73.16;99600.62;18417011;32;20097;-66
2022/06/08 18:48:02;;;;;;;11.30;5.03;;;;;;;20.90;77.67;99625.84;18473998;31;20216;-66
2022/06/08 18:58:09;;;;;;;10.52;5.28;;;;;;;20.87;77.57;99636.66;18420972;32;20097;-66
2022/06/08 19:08:12;;;;;;;11.50;5.05;;;;;;;20.30;79.26;99667.16;18419199;31;20180;-66
2022/06/08 19:28:39;;;;;;;10.43;5.47;;;;;;;20.61;77.13;99694.63;18350373;32;20108;-66
2022/06/08 19:38:46;;;;;;;12.10;5.60;;;;;;;20.27;78.43;99711.53;18354063;32;20521;-66
2022/06/08 19:48:49;;;;;;;12.00;5.60;;;;;;;19.96;79.13;99708.72;18384847;32;20097;-66
2022/06/08 19:58:59;;;;;;;12.70;6.25;;;;;;;19.36;82.03;99697.56;18418214;32;20152;-66
2022/06/08 20:09:05;;;;;;;11.05;5.35;;;;;;;20.16;77.37;99694.41;18417192;31;20161;-66
2022/06/08 20:19:10;;;;;;;10.73;5.32;;;;;;;20.30;75.55;99679.53;18381492;32;20129;-66
2022/06/08 20:29:13;;;;;;;10.10;5.50;;;;;;;19.59;78.66;99684.09;18464952;31;20101;-66
2022/06/08 20:39:20;;;;;;;9.23;5.32;;;;;;;19.98;76.19;99696.22;18416270;32;20415;-66
2022/06/08 20:49:27;;;;;;;12.13;5.80;;;;;;;19.50;78.58;99707.47;18476151;31;20157;-66
2022/06/08 20:59:32;;;;;;;10.85;6.00;;;;;;;19.09;80.50;99713.03;18426394;32;20354;-66
2022/06/08 21:09:35;;;;;;;10.63;5.85;;;;;;;19.28;79.81;99723.53;18425895;31;20097;-66
2022/06/08 21:19:41;;;;;;;11.73;5.60;;;;;;;18.72;82.79;99711.19;18425589;32;20085;-66
2022/06/08 21:29:44;;;;;;;10.40;5.70;;;;;;;19.02;81.15;99709.84;18426381;32;20097;-66
2022/06/08 21:39:49;;;;;;;12.13;5.50;;;;;;;19.13;80.91;99704.00;18424608;32;20104;-66
2022/06/08 21:49:52;;;;;;;10.25;5.37;;;;;;;19.48;78.88;99700.53;18424454;32;20093;-66
2022/06/08 22:00:18;;;;;;;10.68;5.15;;;;;;;19.58;78.10;99704.41;18398155;32;20100;-66
2022/06/08 22:10:28;;;;;;;10.02;5.53;;;;;;;18.76;81.52;99708.38;18384122;31;20463;-69
2022/06/08 22:20:33;;;;;;;8.90;4.97;;;;;;;19.07;79.29;99702.50;18385266;32;20165;-67
2022/06/08 22:30:37;;;;;;;10.23;5.10;;;;;;;18.24;82.13;99699.31;18405153;32;20089;-66
2022/06/08 22:40:44;;;;;;;10.93;5.15;;;;;;;18.22;82.39;99683.53;18422493;32;20107;-66
2022/06/08 22:50:49;;;;;;;9.27;4.60;;;;;;;19.01;77.75;99679.00;18422268;32;20085;-66
2022/06/08 23:00:54;;;;;;;10.75;5.20;;;;;;;18.25;80.70;99664.88;18421750;32;20109;-66
2022/06/08 23:21:20;;;;;;;9.87;5.30;;;;;;;17.76;81.42;99657.37;18420776;32;20080;-66
2022/06/08 23:31:23;;;;;;;9.65;5.43;;;;;;;18.17;78.86;99648.56;18420678;32;20097;-66
2022/06/08 23:41:28;;;;;;;8.80;4.32;;;;;;;18.28;78.32;99637.47;18420285;32;20547;-66
2022/06/08 23:51:32;;;;;;;9.25;4.80;;;;;;;17.99;79.73;99637.00;18419915;32;20085;-66
